Time;durP1;ratioP1;P1;durP2;ratioP2;P2;SDS_P1;SDS_P2;PMS_P1;PMS_P2;Temp;Humidity;BMP_temperature;BMP_pressure;BME280_temperature;BME280_humidity;BME280_pressure;Samples;Min_cycle;Max_cycle;Signal;HPM_P1;HPM_P2
2023/06/26 00:00:56;;;;;;;7.90;6.10;;;;;;;23.51;77.63;98580.13;78228;1294;3029629;-62
2023/06/26 00:03:23;;;;;;;8.40;6.20;;;;;;;23.34;78.25;98584.98;79483;1298;3019575;-64
2023/06/26 00:05:50;;;;;;;8.20;6.50;;;;;;;23.13;79.62;98592.58;79434;1297;3011795;-64
2023/06/26 00:08:18;;;;;;;10.30;7.00;;;;;;;22.97;80.52;98590.64;78418;1297;3051233;-66
2023/06/26 00:10:46;;;;;;;5.30;4.70;;;;;;;22.79;81.75;98587.13;79571;1294;3013246;-65
2023/06/26 00:13:13;;;;;;;9.50;5.40;;;;;;;23.23;80.27;98582.31;79909;1292;3011598;-64
2023/06/26 00:15:41;;;;;;;6.80;5.80;;;;;;;23.62;78.59;98573.58;78467;1295;3051131;-65
2023/06/26 00:18:07;;;;;;;9.40;6.80;;;;;;;23.64;78.32;98574.63;79788;1295;3018891;-65
2023/06/26 00:20:34;;;;;;;8.30;6.50;;;;;;;23.47;78.95;98577.27;79624;1295;3011575;-63
2023/06/26 00:23:04;;;;;;;10.30;6.70;;;;;;;23.28;79.77;98577.27;78374;1295;3028294;-62
2023/06/26 00:25:30;;;;;;;11.40;7.10;;;;;;;23.09;80.44;98581.59;79595;1293;3012895;-62
2023/06/26 00:27:57;;;;;;;6.90;4.90;;;;;;;22.88;81.75;98577.48;79630;1292;3013494;-63
2023/06/26 00:30:25;;;;;;;6.90;5.20;;;;;;;23.26;80.51;98574.75;78392;1298;3050193;-62
2023/06/26 00:32:51;;;;;;;8.00;6.10;;;;;;;23.62;78.76;98572.50;79626;1295;3013770;-64
2023/06/26 00:35:18;;;;;;;10.10;6.70;;;;;;;23.59;78.56;98574.35;79628;1295;3011491;-63
2023/06/26 00:37:46;;;;;;;9.60;6.80;;;;;;;23.30;79.79;98572.09;78418;1293;3028433;-61
2023/06/26 00:40:13;;;;;;;12.00;6.90;;;;;;;23.09;80.88;98573.55;79584;1295;3013564;-65
2023/06/26 00:42:40;;;;;;;10.20;7.40;;;;;;;22.93;81.71;98569.98;79598;1295;3011562;-66
2023/06/26 00:45:08;;;;;;;6.30;4.90;;;;;;;22.80;82.39;98569.88;78412;1295;3025775;-63
2023/06/26 00:47:35;;;;;;;7.50;6.00;;;;;;;23.23;81.09;98561.77;79622;1295;3013517;-64
2023/06/26 00:50:01;;;;;;;9.50;6.40;;;;;;;23.57;79.24;98560.27;79687;1295;3011754;-65
2023/06/26 00:52:29;;;;;;;8.10;6.40;;;;;;;23.44;79.56;98556.75;78291;1298;3029274;-63
2023/06/26 00:54:56;;;;;;;11.10;6.80;;;;;;;23.29;80.22;98562.02;79746;1295;3019210;-62
2023/06/26 00:57:22;;;;;;;11.30;7.60;;;;;;;23.10;81.33;98568.61;79568;1293;3011895;-62
2023/06/26 00:59:50;;;;;;;11.00;7.20;;;;;;;22.94;81.95;98565.95;78482;1295;3026346;-64
2023/06/26 01:02:20;;;;;;;9.10;5.30;;;;;;;22.82;82.77;98564.86;79690;1298;3012770;-63
2023/06/26 01:04:49;;;;;;;9.10;5.80;;;;;;;23.28;81.26;98558.96;79077;1292;3013629;-62
2023/06/26 01:07:18;;;;;;;9.80;5.90;;;;;;;23.73;79.64;98562.33;79593;1297;3013163;-62
2023/06/26 01:09:46;;;;;;;9.80;6.50;;;;;;;23.80;79.05;98563.10;79584;1292;3011783;-62
2023/06/26 01:12:14;;;;;;;9.10;6.50;;;;;;;23.61;79.06;98562.81;78341;1295;3049121;-62
2023/06/26 01:14:41;;;;;;;13.40;6.80;;;;;;;23.42;79.65;98559.88;79457;1292;3012891;-64
2023/06/26 01:17:07;;;;;;;9.20;6.60;;;;;;;23.28;79.73;98557.58;79336;1297;3011819;-62
2023/06/26 01:19:35;;;;;;;11.40;5.70;;;;;;;23.05;81.44;98562.19;78119;1300;3028710;-63
2023/06/26 01:22:29;;;;;;;7.60;6.10;;;;;;;23.46;80.51;98560.67;79324;1298;3018453;-64
2023/06/26 01:25:07;;;;;;;9.50;6.20;;;;;;;23.85;78.73;98556.97;78234;1297;3056832;-64
2023/06/26 01:27:35;;;;;;;12.50;6.80;;;;;;;23.78;78.74;98559.91;78150;1292;3049427;-64
2023/06/26 01:30:03;;;;;;;10.50;6.80;;;;;;;23.62;79.31;98557.73;79486;1297;3013093;-65
2023/06/26 01:32:31;;;;;;;9.50;6.90;;;;;;;23.36;80.24;98556.05;79426;1297;3012314;-63
2023/06/26 01:34:59;;;;;;;8.60;6.70;;;;;;;23.19;81.11;98554.63;78360;1297;3054050;-62
2023/06/26 01:37:29;;;;;;;8.10;5.00;;;;;;;23.06;81.81;98552.00;79496;1296;3013281;-61
2023/06/26 01:39:58;;;;;;;8.20;6.10;;;;;;;23.49;80.72;98549.84;78063;1299;3026982;-63
2023/06/26 01:42:24;;;;;;;9.10;5.90;;;;;;;23.91;78.76;98546.52;79342;1294;3015531;-65
2023/06/26 01:44:52;;;;;;;10.20;7.00;;;;;;;23.86;78.48;98541.92;79233;1299;3011773;-65
2023/06/26 01:47:22;;;;;;;11.10;7.20;;;;;;;23.64;78.99;98547.90;78186;1294;3050564;-62
2023/06/26 01:50:13;;;;;;;9.60;6.90;;;;;;;23.42;79.41;98536.54;79437;1299;3013751;-64
2023/06/26 01:52:42;;;;;;;11.10;7.50;;;;;;;23.13;80.41;98539.86;75823;1299;3052146;-62
2023/06/26 01:55:21;;;;;;;7.00;4.60;;;;;;;22.94;81.23;98549.58;79342;1294;3013373;-63
2023/06/26 01:57:49;;;;;;;8.10;6.10;;;;;;;23.40;79.46;98542.67;78213;1299;3052473;-61
2023/06/26 02:00:17;;;;;;;7.80;6.50;;;;;;;23.73;77.56;98539.84;79190;1301;3013688;-62
2023/06/26 02:02:44;;;;;;;11.70;7.30;;;;;;;23.70;77.40;98546.97;79285;1294;3012042;-62
2023/06/26 02:05:14;;;;;;;9.10;7.10;;;;;;;23.49;78.05;98542.55;78150;1299;3050113;-63
2023/06/26 02:07:41;;;;;;;12.60;7.50;;;;;;;23.34;79.35;98541.70;79368;1298;3012894;-64
2023/06/26 02:10:08;;;;;;;10.90;8.10;;;;;;;23.14;80.26;98541.65;79512;1298;3012744;-63
2023/06/26 02:12:37;;;;;;;9.40;5.70;;;;;;;22.97;81.18;98535.61;78247;1298;3026249;-63
2023/06/26 02:15:05;;;;;;;8.30;6.50;;;;;;;23.35;80.07;98533.65;79599;1295;3012879;-63
2023/06/26 02:17:35;;;;;;;11.50;7.70;;;;;;;23.70;78.59;98532.33;79028;1296;3011662;-63
2023/06/26 02:20:02;;;;;;;10.20;7.70;;;;;;;23.67;78.57;98526.66;79460;1296;3014005;-61
2023/06/26 02:22:29;;;;;;;15.00;9.30;;;;;;;23.55;79.01;98527.73;79686;1298;3011677;-62
2023/06/26 02:24:57;;;;;;;9.80;8.00;;;;;;;23.31;80.04;98525.15;78380;1297;3026699;-64
2023/06/26 02:27:23;;;;;;;12.00;7.90;;;;;;;23.18;80.62;98526.56;79699;1295;3019150;-64
2023/06/26 02:29:50;;;;;;;9.40;6.00;;;;;;;23.03;81.54;98527.31;79704;1295;3011657;-63
2023/06/26 02:32:18;;;;;;;10.20;6.70;;;;;;;23.43;80.50;98518.15;78313;1295;3026291;-63
2023/06/26 02:34:45;;;;;;;12.40;7.30;;;;;;;23.84;78.71;98515.08;79585;1298;3020631;-61
2023/06/26 02:37:11;;;;;;;13.20;8.80;;;;;;;23.84;78.16;98517.81;79546;1298;3011694;-60
2023/06/26 02:39:40;;;;;;;12.40;8.90;;;;;;;23.72;78.50;98519.63;78385;1298;3027545;-65
2023/06/26 02:42:06;;;;;;;10.80;8.70;;;;;;;23.52;79.19;98521.04;79608;1298;3013720;-65
2023/06/26 02:44:33;;;;;;;11.20;8.20;;;;;;;23.32;80.34;98520.66;79774;1297;3011665;-63
2023/06/26 02:47:01;;;;;;;12.00;5.50;;;;;;;23.17;81.25;98521.48;78289;1297;3027057;-63
2023/06/26 02:49:28;;;;;;;15.30;7.10;;;;;;;23.63;79.59;98517.36;79395;1296;3013765;-64
2023/06/26 02:51:54;;;;;;;12.80;8.00;;;;;;;23.99;77.97;98516.02;79509;1299;3013819;-65
2023/06/26 02:54:28;;;;;;;9.90;7.80;;;;;;;24.00;77.60;98515.81;78317;1298;3052850;-63
2023/06/26 02:56:59;;;;;;;13.00;8.40;;;;;;;23.94;77.60;98511.55;79463;1298;3013038;-62
2023/06/26 02:59:29;;;;;;;12.20;7.70;;;;;;;23.76;78.04;98510.98;78316;1294;3051189;-62
2023/06/26 03:01:56;;;;;;;9.70;7.60;;;;;;;23.63;78.41;98506.51;79533;1294;3018824;-62
2023/06/26 03:04:30;;;;;;;8.00;5.20;;;;;;;23.50;78.64;98505.07;78279;1295;3053785;-64
2023/06/26 03:06:57;;;;;;;10.40;7.60;;;;;;;24.00;77.59;98508.04;79604;1295;3013542;-62
2023/06/26 03:09:23;;;;;;;11.10;8.30;;;;;;;24.37;75.75;98507.89;79407;1298;3011623;-64
2023/06/26 03:11:52;;;;;;;13.30;8.50;;;;;;;24.30;75.63;98503.17;78366;1296;3026368;-62
2023/06/26 03:17:41;;;;;;;11.20;7.80;;;;;;;23.97;76.50;98508.73;80147;1299;3013724;-62
2023/06/26 03:20:10;;;;;;;17.30;9.20;;;;;;;23.50;78.62;98510.58;78867;1304;3011593;-64
2023/06/26 03:22:54;;;;;;;13.30;8.00;;;;;;;23.01;81.42;98508.71;77868;1304;3050203;-64
2023/06/26 03:25:21;;;;;;;15.80;9.80;;;;;;;23.24;80.60;98505.70;79097;1302;3014730;-62
2023/06/26 03:27:48;;;;;;;18.00;11.80;;;;;;;23.45;79.52;98506.13;79106;1304;3013184;-62
2023/06/26 03:30:15;;;;;;;19.20;13.40;;;;;;;23.29;79.68;98505.64;77572;1301;3050216;-63
2023/06/26 03:32:44;;;;;;;35.40;18.80;;;;;;;23.01;80.97;98504.17;77964;1304;3049459;-64
2023/06/26 03:35:11;;;;;;;24.60;16.70;;;;;;;22.93;80.60;98505.94;79349;1310;3012940;-64
2023/06/26 03:37:38;;;;;;;26.00;14.60;;;;;;;22.70;81.03;98506.30;79213;1301;3011884;-63
2023/06/26 03:40:08;;;;;;;15.70;9.60;;;;;;;22.36;82.14;98498.92;78008;1301;3053476;-64
2023/06/26 03:42:34;;;;;;;19.60;11.20;;;;;;;22.85;80.81;98494.40;79338;1304;3013559;-62
2023/06/26 03:45:01;;;;;;;20.30;12.80;;;;;;;23.20;78.60;98488.59;79176;1299;3011562;-64
2023/06/26 03:47:30;;;;;;;17.70;12.50;;;;;;;23.18;78.12;98491.81;78062;1301;3048661;-62
2023/06/26 03:49:56;;;;;;;15.50;13.00;;;;;;;22.95;78.55;98486.79;79299;1304;3013277;-65
2023/06/26 03:52:23;;;;;;;17.60;13.30;;;;;;;22.71;79.47;98488.67;79306;1303;3011885;-63
2023/06/26 03:54:51;;;;;;;20.80;12.90;;;;;;;22.49;80.54;98491.89;78157;1298;3028338;-65
2023/06/26 03:57:18;;;;;;;17.50;9.80;;;;;;;22.20;81.86;98487.38;79557;1301;3013348;-65
2023/06/26 03:59:47;;;;;;;21.90;14.00;;;;;;;22.71;80.33;98480.34;79368;1297;3011890;-65
2023/06/26 04:02:15;;;;;;;28.40;15.90;;;;;;;23.07;77.89;98476.68;78298;1297;3049087;-61
2023/06/26 04:04:42;;;;;;;28.50;20.30;;;;;;;22.90;78.36;98474.86;79471;1301;3014139;-65
2023/06/26 04:07:09;;;;;;;35.20;20.30;;;;;;;22.83;78.46;98467.94;79299;1301;3013080;-62
2023/06/26 04:09:38;;;;;;;33.30;22.00;;;;;;;22.80;78.60;98462.08;78315;1302;3052977;-67
2023/06/26 04:12:06;;;;;;;37.90;23.60;;;;;;;22.77;78.66;98464.90;79514;1301;3018380;-65
2023/06/26 04:14:32;;;;;;;27.80;16.70;;;;;;;22.72;78.86;98467.38;79367;1299;3011623;-65
2023/06/26 04:17:03;;;;;;;33.50;20.20;;;;;;;23.27;77.48;98464.60;78147;1301;3049982;-64
2023/06/26 04:19:30;;;;;;;33.30;21.50;;;;;;;23.80;75.18;98461.85;79385;1301;3013068;-64
2023/06/26 04:21:56;;;;;;;33.60;22.70;;;;;;;23.95;74.19;98465.38;79360;1300;3011899;-65
2023/06/26 04:24:25;;;;;;;37.70;23.50;;;;;;;23.93;73.95;98470.89;78076;1301;3052893;-64
2023/06/26 04:26:51;;;;;;;32.40;21.70;;;;;;;23.90;74.05;98474.36;79324;1295;3013777;-64
2023/06/26 04:29:18;;;;;;;25.40;17.90;;;;;;;23.87;73.46;98475.79;79183;1298;3011684;-62
2023/06/26 04:31:46;;;;;;;32.70;20.00;;;;;;;23.62;73.66;98484.23;78123;1298;3049980;-64
2023/06/26 04:34:13;;;;;;;24.70;18.80;;;;;;;23.24;75.19;98492.91;79228;1301;3015057;-66
2023/06/26 04:36:40;;;;;;;21.80;14.30;;;;;;;23.04;76.06;98499.33;79532;1295;3011892;-65
2023/06/26 04:39:08;;;;;;;25.60;16.50;;;;;;;23.62;74.84;98498.89;78206;1301;3054156;-63
2023/06/26 04:41:35;;;;;;;24.50;16.30;;;;;;;24.19;72.75;98506.14;79355;1298;3021021;-65
2023/06/26 04:44:01;;;;;;;22.90;16.30;;;;;;;24.39;71.67;98507.98;79343;1301;3011688;-62
2023/06/26 04:46:29;;;;;;;27.80;18.50;;;;;;;24.32;71.45;98509.63;78101;1301;3025729;-61
2023/06/26 04:48:57;;;;;;;39.50;25.60;;;;;;;24.18;71.88;98516.38;79232;1301;3013109;-65
2023/06/26 04:51:26;;;;;;;43.10;26.90;;;;;;;23.96;72.58;98514.19;79284;1300;3011706;-64
2023/06/26 04:53:54;;;;;;;48.60;31.60;;;;;;;23.62;73.29;98521.23;78133;1301;3052281;-65
2023/06/26 04:56:21;;;;;;;44.10;30.50;;;;;;;23.32;74.15;98521.16;79249;1298;3013662;-64
2023/06/26 04:58:47;;;;;;;29.00;19.50;;;;;;;22.98;75.46;98515.46;79327;1295;3012100;-63
2023/06/26 05:01:15;;;;;;;35.30;20.10;;;;;;;23.35;74.45;98510.12;78053;1301;3026522;-61
2023/06/26 05:03:42;;;;;;;27.00;19.50;;;;;;;23.58;72.62;98499.70;79307;1301;3013740;-61
2023/06/26 05:06:09;;;;;;;24.50;17.90;;;;;;;23.55;72.07;98500.13;79204;1296;3012814;-63
2023/06/26 05:08:38;;;;;;;21.60;15.30;;;;;;;23.44;72.12;98500.70;78047;1301;3052834;-63
2023/06/26 05:11:04;;;;;;;22.20;15.80;;;;;;;22.89;73.92;98503.77;79429;1298;3012923;-64
2023/06/26 05:13:31;;;;;;;20.00;15.30;;;;;;;22.79;74.97;98496.87;79540;1298;3011138;-61
2023/06/26 05:16:00;;;;;;;18.10;13.30;;;;;;;22.57;75.88;98501.87;77974;1300;3027193;-62
2023/06/26 05:18:26;;;;;;;17.70;12.00;;;;;;;22.48;75.93;98508.75;79230;1296;3013150;-63
2023/06/26 05:20:53;;;;;;;14.20;8.20;;;;;;;22.49;76.38;98510.91;79277;1295;3011603;-62
2023/06/26 05:23:21;;;;;;;18.00;10.10;;;;;;;23.08;74.57;98512.02;78274;1301;3052898;-64
2023/06/26 05:25:50;;;;;;;13.40;9.10;;;;;;;23.38;72.89;98508.77;79354;1304;3012980;-63
2023/06/26 05:28:17;;;;;;;13.70;10.30;;;;;;;23.18;72.97;98513.98;79353;1298;3011418;-64
2023/06/26 05:30:46;;;;;;;11.70;9.20;;;;;;;23.03;73.31;98516.85;78155;1301;3050197;-62
2023/06/26 05:33:13;;;;;;;13.90;9.30;;;;;;;22.78;74.08;98527.48;79406;1295;3013132;-65
2023/06/26 05:35:39;;;;;;;12.40;9.40;;;;;;;22.63;74.63;98528.92;79134;1299;3012145;-63
2023/06/26 05:38:07;;;;;;;13.10;9.10;;;;;;;22.70;74.29;98527.70;78100;1303;3052395;-63
2023/06/26 05:40:36;;;;;;;17.50;9.10;;;;;;;22.64;74.30;98529.59;79436;1295;3012099;-65
2023/06/26 05:43:03;;;;;;;9.40;6.70;;;;;;;22.51;75.04;98533.36;79537;1298;3011740;-66
2023/06/26 05:45:31;;;;;;;14.10;8.10;;;;;;;22.84;74.32;98535.42;78070;1301;3049388;-67
2023/06/26 05:47:58;;;;;;;14.00;9.00;;;;;;;23.28;72.69;98536.76;79377;1301;3013064;-64
2023/06/26 05:50:26;;;;;;;16.60;12.90;;;;;;;23.13;73.04;98544.45;79242;1300;3013478;-65
2023/06/26 05:52:55;;;;;;;24.70;14.20;;;;;;;23.02;73.29;98548.52;78073;1301;3051879;-64
2023/06/26 05:55:21;;;;;;;21.50;14.50;;;;;;;22.76;74.52;98548.19;79600;1295;3016097;-64
2023/06/26 05:57:48;;;;;;;22.10;14.50;;;;;;;22.54;75.32;98551.91;79408;1295;3011830;-62
2023/06/26 06:00:16;;;;;;;21.60;14.50;;;;;;;22.28;76.44;98543.53;78033;1298;3048880;-64
2023/06/26 06:02:46;;;;;;;18.80;9.70;;;;;;;22.18;76.62;98539.61;79299;1298;3013070;-65
2023/06/26 06:05:15;;;;;;;15.10;11.70;;;;;;;22.42;76.34;98540.48;78826;1298;3011512;-65
2023/06/26 06:07:43;;;;;;;17.70;10.70;;;;;;;22.57;75.83;98533.31;79291;1301;3013457;-65
2023/06/26 06:10:10;;;;;;;19.60;12.80;;;;;;;22.42;76.47;98536.28;79453;1295;3011943;-63
2023/06/26 06:12:38;;;;;;;16.60;11.70;;;;;;;22.26;76.90;98535.20;77998;1301;3050879;-63
2023/06/26 06:15:06;;;;;;;13.90;10.40;;;;;;;22.16;77.08;98540.79;79356;1297;3013260;-61
2023/06/26 06:17:32;;;;;;;14.10;10.60;;;;;;;21.88;78.52;98540.86;79337;1295;3013100;-61
2023/06/26 06:20:00;;;;;;;16.30;10.20;;;;;;;21.69;79.62;98546.78;78042;1301;3050015;-63
2023/06/26 06:22:27;;;;;;;19.10;7.40;;;;;;;21.53;81.29;98549.63;79461;1301;3013720;-62
2023/06/26 06:24:53;;;;;;;13.30;10.50;;;;;;;22.11;79.37;98550.07;79209;1298;3011484;-61
2023/06/26 06:27:21;;;;;;;14.80;9.60;;;;;;;22.52;77.33;98538.10;78165;1300;3026719;-63
2023/06/26 06:29:48;;;;;;;11.80;9.20;;;;;;;22.35;77.49;98531.43;79464;1300;3013474;-63
2023/06/26 06:32:15;;;;;;;26.40;13.50;;;;;;;22.03;78.77;98530.66;79411;1298;3011828;-64
2023/06/26 06:34:43;;;;;;;14.50;11.00;;;;;;;21.74;80.31;98531.41;78015;1300;3026069;-66
2023/06/26 06:37:09;;;;;;;13.30;9.90;;;;;;;21.43;82.14;98529.45;79417;1299;3013342;-72
2023/06/26 06:39:37;;;;;;;12.10;7.80;;;;;;;21.24;83.59;98524.77;79283;1301;3011842;-67
2023/06/26 06:42:05;;;;;;;14.00;9.30;;;;;;;21.49;83.28;98515.33;78359;1297;3051422;-64
2023/06/26 06:44:31;;;;;;;17.30;9.90;;;;;;;21.52;82.62;98511.03;79524;1298;3013024;-65
2023/06/26 06:46:58;;;;;;;15.70;11.10;;;;;;;21.43;83.25;98506.46;79399;1298;3011560;-66
2023/06/26 06:49:26;;;;;;;14.90;10.20;;;;;;;21.24;84.67;98499.45;78146;1300;3026601;-65
2023/06/26 06:51:52;;;;;;;16.20;12.50;;;;;;;21.10;86.23;98504.11;79266;1301;3013738;-67
2023/06/26 06:54:19;;;;;;;18.80;12.10;;;;;;;20.89;87.86;98499.54;79447;1301;3012954;-66
2023/06/26 06:56:47;;;;;;;17.90;13.80;;;;;;;21.32;86.53;98503.30;78405;1295;3027784;-65
2023/06/26 06:59:14;;;;;;;22.40;17.20;;;;;;;21.68;84.42;98507.66;79843;1295;3013706;-64
2023/06/26 07:01:40;;;;;;;24.60;19.00;;;;;;;21.49;85.50;98498.63;79706;1295;3011856;-64
2023/06/26 07:04:08;;;;;;;27.40;18.70;;;;;;;21.33;85.78;98499.81;78394;1295;3025882;-66
2023/06/26 07:06:35;;;;;;;24.10;18.00;;;;;;;21.02;87.40;98495.70;79664;1297;3012812;-63
2023/06/26 07:09:02;;;;;;;19.00;12.00;;;;;;;20.90;88.17;98500.30;79680;1294;3011756;-63
2023/06/26 07:11:30;;;;;;;20.20;14.40;;;;;;;21.34;87.80;98498.19;78371;1297;3026483;-64
2023/06/26 07:13:57;;;;;;;20.40;14.20;;;;;;;21.77;85.34;98500.06;79528;1297;3012952;-64
2023/06/26 07:16:24;;;;;;;20.80;15.20;;;;;;;21.94;84.01;98503.63;79937;1295;3011694;-64
2023/06/26 07:18:52;;;;;;;20.60;15.60;;;;;;;21.65;84.55;98515.54;78459;1298;3028033;-63
2023/06/26 07:21:19;;;;;;;17.40;13.50;;;;;;;21.44;85.67;98518.98;79668;1298;3012890;-66
2023/06/26 07:23:45;;;;;;;13.90;9.80;;;;;;;21.25;86.46;98520.88;79610;1295;3011489;-63
2023/06/26 07:26:14;;;;;;;15.10;9.80;;;;;;;21.64;85.11;98522.81;78318;1297;3028095;-62
2023/06/26 07:28:41;;;;;;;14.10;8.40;;;;;;;22.09;82.66;98525.88;79632;1295;3014902;-64
2023/06/26 07:31:07;;;;;;;15.90;9.70;;;;;;;22.14;82.31;98525.02;79462;1295;3011861;-64
2023/06/26 07:33:35;;;;;;;12.20;9.10;;;;;;;22.04;82.56;98534.49;78408;1295;3049832;-62
2023/06/26 07:36:02;;;;;;;13.90;8.60;;;;;;;21.80;82.84;98538.55;79542;1297;3012969;-62
2023/06/26 07:38:29;;;;;;;7.50;5.40;;;;;;;21.76;83.17;98538.97;79218;1296;3012865;-62
2023/06/26 07:40:57;;;;;;;10.70;6.60;;;;;;;22.19;81.63;98540.09;78404;1295;3028440;-63
2023/06/26 07:43:24;;;;;;;7.50;6.60;;;;;;;22.43;79.53;98539.75;79465;1296;3014900;-62
2023/06/26 07:45:53;;;;;;;11.40;8.00;;;;;;;22.45;79.02;98534.45;79386;1295;3013304;-60
2023/06/26 07:48:21;;;;;;;10.40;8.00;;;;;;;22.09;80.30;98536.23;78229;1298;3050417;-63
2023/06/26 07:50:48;;;;;;;9.00;7.30;;;;;;;22.00;80.71;98539.11;79586;1297;3012817;-64
2023/06/26 07:53:14;;;;;;;11.20;7.90;;;;;;;21.63;81.74;98534.70;79488;1296;3011857;-64
2023/06/26 07:55:43;;;;;;;10.20;6.70;;;;;;;21.44;83.33;98538.35;78339;1294;3028477;-65
2023/06/26 07:58:09;;;;;;;13.90;7.70;;;;;;;21.76;83.14;98526.16;79520;1295;3013759;-62
2023/06/26 08:00:36;;;;;;;12.40;9.50;;;;;;;22.11;81.66;98521.48;79564;1293;3011666;-63
2023/06/26 08:03:04;;;;;;;17.90;10.70;;;;;;;22.01;81.86;98521.90;78295;1298;3052696;-62
2023/06/26 08:05:30;;;;;;;14.70;11.00;;;;;;;21.60;83.39;98522.94;79577;1295;3013467;-61
2023/06/26 08:07:57;;;;;;;15.10;12.20;;;;;;;21.56;84.38;98522.86;79391;1298;3011674;-63
2023/06/26 08:10:25;;;;;;;9.50;7.30;;;;;;;21.62;84.76;98521.23;78340;1297;3028744;-64
2023/06/26 08:12:52;;;;;;;12.10;8.60;;;;;;;22.14;82.61;98523.85;79606;1295;3018656;-66
2023/06/26 08:15:19;;;;;;;11.70;9.10;;;;;;;22.53;80.80;98522.26;79571;1297;3011974;-62
2023/06/26 08:17:47;;;;;;;12.90;8.80;;;;;;;22.55;80.11;98523.92;78320;1295;3030352;-63
2023/06/26 08:20:16;;;;;;;11.70;8.30;;;;;;;22.37;80.32;98526.14;79560;1297;3013060;-63
2023/06/26 08:22:43;;;;;;;14.90;8.30;;;;;;;22.06;81.22;98522.27;79667;1293;3013528;-63
2023/06/26 08:25:11;;;;;;;10.00;7.10;;;;;;;21.96;81.85;98524.26;78227;1297;3051573;-65
2023/06/26 08:27:38;;;;;;;8.30;5.80;;;;;;;21.77;82.13;98527.95;79626;1295;3013485;-65
2023/06/26 08:30:05;;;;;;;10.90;6.70;;;;;;;22.15;80.83;98527.94;79500;1298;3011596;-63
2023/06/26 08:32:33;;;;;;;9.20;6.90;;;;;;;22.47;78.59;98530.81;78341;1295;3050864;-65
2023/06/26 08:35:00;;;;;;;10.80;7.50;;;;;;;22.54;78.10;98534.70;79461;1297;3013032;-65
2023/06/26 08:37:27;;;;;;;11.80;8.20;;;;;;;22.44;79.15;98531.90;79641;1297;3011683;-67
2023/06/26 08:39:55;;;;;;;10.80;7.60;;;;;;;22.52;78.60;98533.20;78478;1295;3025620;-64
2023/06/26 08:42:21;;;;;;;9.40;7.20;;;;;;;22.45;78.46;98537.50;79807;1295;3013747;-63
2023/06/26 08:44:48;;;;;;;7.70;5.70;;;;;;;22.28;78.44;98533.88;79516;1298;3011675;-62
2023/06/26 08:47:16;;;;;;;8.60;6.50;;;;;;;22.90;76.93;98537.40;78340;1298;3027644;-61
2023/06/26 08:49:56;;;;;;;8.50;7.20;;;;;;;23.19;74.32;98538.69;79556;1300;3021295;-61
2023/06/26 08:52:24;;;;;;;9.40;7.40;;;;;;;22.99;74.63;98552.42;78232;1297;3068908;-63
2023/06/26 08:54:56;;;;;;;8.40;7.50;;;;;;;22.97;75.44;98548.16;79529;1297;3013250;-65
2023/06/26 08:57:24;;;;;;;11.50;8.20;;;;;;;23.04;75.29;98544.55;78230;1298;3050050;-63
2023/06/26 08:59:51;;;;;;;10.70;9.20;;;;;;;22.90;75.76;98552.73;79483;1294;3013525;-62
2023/06/26 09:02:20;;;;;;;11.40;8.40;;;;;;;22.75;75.67;98549.95;79418;1296;3011525;-61
2023/06/26 09:04:51;;;;;;;9.30;5.40;;;;;;;22.62;75.84;98551.90;78352;1294;3051813;-63
2023/06/26 09:07:18;;;;;;;8.10;6.50;;;;;;;23.20;74.58;98548.54;79447;1295;3012962;-64
2023/06/26 09:09:47;;;;;;;9.30;7.00;;;;;;;23.70;72.47;98546.97;78946;1297;3012643;-65
2023/06/26 09:12:14;;;;;;;9.40;7.70;;;;;;;23.81;71.74;98549.41;79932;1295;3021404;-64
2023/06/26 09:14:40;;;;;;;10.70;8.00;;;;;;;23.67;72.09;98553.59;79332;1299;3013005;-64
2023/06/26 09:17:08;;;;;;;8.50;6.50;;;;;;;23.55;71.53;98557.84;78292;1297;3026751;-65
2023/06/26 09:19:38;;;;;;;7.00;6.00;;;;;;;23.23;71.45;98548.91;79700;1295;3013497;-63
2023/06/26 09:22:12;;;;;;;10.00;6.00;;;;;;;23.14;71.64;98550.97;78968;1293;3011858;-61
2023/06/26 09:24:40;;;;;;;8.60;6.30;;;;;;;22.99;71.30;98545.91;79582;1294;3011938;-65
2023/06/26 09:27:08;;;;;;;6.50;5.70;;;;;;;23.09;71.40;98545.11;78271;1298;3052852;-65
2023/06/26 09:29:35;;;;;;;6.40;5.30;;;;;;;23.23;71.32;98537.92;79377;1295;3013842;-65
2023/06/26 09:32:02;;;;;;;5.40;4.30;;;;;;;23.25;71.72;98531.48;80725;1295;3011644;-62
2023/06/26 09:34:34;;;;;;;8.10;5.40;;;;;;;23.80;70.62;98529.55;80567;1295;3025664;-66
2023/06/26 09:37:03;;;;;;;7.10;5.50;;;;;;;24.31;68.64;98521.84;79486;1298;3011605;-65
2023/06/26 09:39:31;;;;;;;7.10;5.50;;;;;;;24.50;68.73;98515.33;78535;1297;3053138;-65
2023/06/26 09:41:58;;;;;;;8.10;5.90;;;;;;;24.45;68.07;98513.50;79670;1294;3013330;-66
2023/06/26 09:44:25;;;;;;;8.00;5.90;;;;;;;24.10;69.38;98508.40;79690;1295;3013416;-66
2023/06/26 09:46:53;;;;;;;8.90;5.60;;;;;;;23.93;69.95;98508.64;78355;1294;3050913;-64
2023/06/26 09:49:20;;;;;;;8.50;5.60;;;;;;;23.60;70.55;98502.70;79313;1295;3013956;-65
2023/06/26 09:51:46;;;;;;;8.90;5.80;;;;;;;23.27;70.92;98498.98;79685;1294;3013470;-66
2023/06/26 09:54:16;;;;;;;6.10;5.40;;;;;;;23.05;72.01;98490.45;78489;1295;3026728;-65
2023/06/26 09:56:43;;;;;;;8.20;5.20;;;;;;;22.84;72.72;98489.78;79506;1300;3013679;-64
2023/06/26 09:59:09;;;;;;;6.30;3.80;;;;;;;23.00;72.83;98475.41;79698;1294;3011862;-66
2023/06/26 10:01:41;;;;;;;5.60;4.40;;;;;;;23.52;71.09;98466.98;78517;1295;3047604;-66
2023/06/26 10:04:08;;;;;;;7.80;4.40;;;;;;;23.77;69.57;98458.66;79663;1296;3012133;-66
2023/06/26 10:06:37;;;;;;;5.20;4.40;;;;;;;24.03;68.63;98456.27;78511;1296;3028253;-65
2023/06/26 10:09:03;;;;;;;5.20;4.30;;;;;;;24.22;68.27;98454.34;79580;1300;3012964;-65
2023/06/26 10:11:40;;;;;;;7.70;5.60;;;;;;;24.12;67.61;98453.20;79603;1295;3011526;-65
2023/06/26 10:14:09;;;;;;;10.60;7.70;;;;;;;23.34;69.15;98444.98;78387;1295;3051328;-63
2023/06/26 10:16:36;;;;;;;10.10;7.20;;;;;;;23.20;69.71;98451.17;79569;1297;3012873;-64
2023/06/26 10:19:06;;;;;;;16.70;10.20;;;;;;;23.02;69.54;98454.05;79559;1295;3011760;-63
2023/06/26 10:21:34;;;;;;;15.00;9.70;;;;;;;22.88;69.30;98447.79;78252;1297;3048439;-64
2023/06/26 10:24:02;;;;;;;15.40;10.40;;;;;;;22.73;69.99;98437.11;79514;1298;3019228;-64
2023/06/26 10:26:30;;;;;;;13.20;9.20;;;;;;;22.64;68.76;98437.39;79451;1295;3011738;-64
2023/06/26 10:28:58;;;;;;;20.30;13.90;;;;;;;22.64;69.36;98443.08;78092;1300;3051537;-63
2023/06/26 10:31:26;;;;;;;13.90;9.50;;;;;;;22.73;68.58;98454.91;79398;1300;3013483;-64
2023/06/26 10:33:52;;;;;;;13.60;9.40;;;;;;;22.50;68.15;98451.91;79560;1294;3011882;-63
2023/06/26 10:36:27;;;;;;;9.30;6.30;;;;;;;22.56;67.57;98446.98;78025;1299;3050601;-64
2023/06/26 10:38:58;;;;;;;8.90;6.10;;;;;;;22.54;66.44;98442.19;78959;1295;3011678;-62
2023/06/26 10:41:25;;;;;;;6.50;5.30;;;;;;;22.54;66.14;98433.65;79602;1295;3011417;-65
2023/06/26 10:44:07;;;;;;;8.30;5.40;;;;;;;22.61;65.71;98432.97;79585;1294;3013433;-64
2023/06/26 10:46:58;;;;;;;4.40;3.70;;;;;;;22.62;66.29;98442.89;78304;1294;3052357;-63
2023/06/26 10:49:28;;;;;;;6.70;4.20;;;;;;;22.79;65.31;98448.69;78143;1300;3056452;-64
2023/06/26 10:51:57;;;;;;;5.40;4.10;;;;;;;22.86;64.54;98458.15;79529;1294;3011579;-64
2023/06/26 10:54:28;;;;;;;5.40;4.10;;;;;;;22.83;64.21;98460.61;78270;1294;3053723;-64
2023/06/26 10:56:58;;;;;;;5.00;4.40;;;;;;;22.80;64.10;98465.95;79656;1294;3011657;-63
2023/06/26 10:59:27;;;;;;;8.00;4.80;;;;;;;22.97;64.14;98466.14;78502;1295;3053676;-66
2023/06/26 11:02:00;;;;;;;6.80;4.30;;;;;;;23.10;63.91;98470.07;79546;1298;3013263;-65
2023/06/26 11:04:44;;;;;;;9.90;4.90;;;;;;;23.07;64.17;98475.17;78354;1293;3051167;-63
2023/06/26 11:07:23;;;;;;;6.30;5.00;;;;;;;23.16;63.44;98469.79;78319;1298;3056964;-64
2023/06/26 11:10:01;;;;;;;12.90;5.20;;;;;;;23.23;62.44;98468.02;78411;1294;3050258;-64
2023/06/26 11:12:47;;;;;;;7.00;5.10;;;;;;;23.38;63.04;98465.04;78224;1297;3053673;-63
2023/06/26 11:15:17;;;;;;;12.50;7.20;;;;;;;23.60;62.91;98468.04;78259;1295;3049947;-62
2023/06/26 11:17:43;;;;;;;13.20;8.10;;;;;;;23.64;63.13;98469.98;79497;1294;3011301;-61